sensor_id;sensor_type;location;lat;lon;timestamp;pressure;altitude;pressure_sealevel;temperature;humidity
12757;BME280;31601;48.042;12.240;2023-01-30T00:00:49;96800.38;;;-1.48;69.08
12757;BME280;31601;48.042;12.240;2023-01-30T00:03:16;96800.28;;;-1.47;68.97
12757;BME280;31601;48.042;12.240;2023-01-30T00:05:43;96793.38;;;-1.46;69.10
12757;BME280;31601;48.042;12.240;2023-01-30T00:08:10;96795.44;;;-1.51;69.09
12757;BME280;31601;48.042;12.240;2023-01-30T00:10:37;96799.53;;;-1.49;69.05
12757;BME280;31601;48.042;12.240;2023-01-30T00:13:03;96790.19;;;-1.50;69.12
12757;BME280;31601;48.042;12.240;2023-01-30T00:15:30;96794.56;;;-1.52;69.15
12757;BME280;31601;48.042;12.240;2023-01-30T00:17:57;96789.72;;;-1.56;69.16
12757;BME280;31601;48.042;12.240;2023-01-30T00:20:23;96787.91;;;-1.54;69.34
12757;BME280;31601;48.042;12.240;2023-01-30T00:22:50;96786.41;;;-1.58;69.41
12757;BME280;31601;48.042;12.240;2023-01-30T00:25:17;96777.78;;;-1.57;69.13
12757;BME280;31601;48.042;12.240;2023-01-30T00:27:44;96770.16;;;-1.59;69.14
12757;BME280;31601;48.042;12.240;2023-01-30T00:30:11;96762.53;;;-1.60;69.22
12757;BME280;31601;48.042;12.240;2023-01-30T00:32:37;96765.31;;;-1.64;69.09
12757;BME280;31601;48.042;12.240;2023-01-30T00:35:05;96753.44;;;-1.66;69.12
12757;BME280;31601;48.042;12.240;2023-01-30T00:37:31;96756.13;;;-1.68;69.18
12757;BME280;31601;48.042;12.240;2023-01-30T00:39:58;96761.25;;;-1.68;68.84
12757;BME280;31601;48.042;12.240;2023-01-30T00:42:25;96753.72;;;-1.71;69.03
12757;BME280;31601;48.042;12.240;2023-01-30T00:45:10;96747.88;;;-1.73;69.12
12757;BME280;31601;48.042;12.240;2023-01-30T00:47:54;96750.63;;;-1.76;68.83
12757;BME280;31601;48.042;12.240;2023-01-30T00:50:21;96750.72;;;-1.77;68.83
12757;BME280;31601;48.042;12.240;2023-01-30T00:52:47;96743.09;;;-1.79;68.99
12757;BME280;31601;48.042;12.240;2023-01-30T00:55:15;96747.50;;;-1.81;69.10
12757;BME280;31601;48.042;12.240;2023-01-30T00:57:43;96739.06;;;-1.83;68.84
12757;BME280;31601;48.042;12.240;2023-01-30T01:00:10;96733.19;;;-1.85;68.85
12757;BME280;31601;48.042;12.240;2023-01-30T01:02:37;96730.72;;;-1.87;69.07
12757;BME280;31601;48.042;12.240;2023-01-30T01:05:04;96721.91;;;-1.97;69.09
12757;BME280;31601;48.042;12.240;2023-01-30T01:07:31;96717.66;;;-1.98;69.19
12757;BME280;31601;48.042;12.240;2023-01-30T01:09:57;96718.50;;;-1.98;69.02
12757;BME280;31601;48.042;12.240;2023-01-30T01:12:24;96717.84;;;-2.01;68.73
12757;BME280;31601;48.042;12.240;2023-01-30T01:14:51;96716.41;;;-2.20;69.29
12757;BME280;31601;48.042;12.240;2023-01-30T01:17:18;96717.31;;;-2.35;69.40
12757;BME280;31601;48.042;12.240;2023-01-30T01:19:44;96709.91;;;-2.25;68.98
12757;BME280;31601;48.042;12.240;2023-01-30T01:22:11;96700.97;;;-2.20;69.23
12757;BME280;31601;48.042;12.240;2023-01-30T01:24:37;96704.59;;;-2.22;69.17
12757;BME280;31601;48.042;12.240;2023-01-30T01:27:03;96701.91;;;-2.21;68.91
12757;BME280;31601;48.042;12.240;2023-01-30T01:29:30;96695.94;;;-2.21;69.12
12757;BME280;31601;48.042;12.240;2023-01-30T01:31:58;96685.13;;;-2.26;69.00
12757;BME280;31601;48.042;12.240;2023-01-30T01:34:24;96677.41;;;-2.26;69.29
12757;BME280;31601;48.042;12.240;2023-01-30T01:36:51;96664.66;;;-2.28;69.01
12757;BME280;31601;48.042;12.240;2023-01-30T01:39:17;96672.25;;;-2.26;68.95
12757;BME280;31601;48.042;12.240;2023-01-30T01:41:43;96664.84;;;-2.31;69.30
12757;BME280;31601;48.042;12.240;2023-01-30T01:44:10;96675.03;;;-2.29;69.06
12757;BME280;31601;48.042;12.240;2023-01-30T01:46:40;96677.97;;;-2.36;69.13
12757;BME280;31601;48.042;12.240;2023-01-30T01:49:14;96681.63;;;-2.40;69.29
12757;BME280;31601;48.042;12.240;2023-01-30T01:51:47;96684.75;;;-2.35;69.20
12757;BME280;31601;48.042;12.240;2023-01-30T01:54:20;96686.41;;;-2.34;69.16
12757;BME280;31601;48.042;12.240;2023-01-30T01:56:49;96677.97;;;-2.36;69.28
12757;BME280;31601;48.042;12.240;2023-01-30T01:59:19;96672.00;;;-2.36;69.17
12757;BME280;31601;48.042;12.240;2023-01-30T02:01:48;96675.22;;;-2.47;69.24
12757;BME280;31601;48.042;12.240;2023-01-30T02:04:17;96671.34;;;-2.54;68.93
12757;BME280;31601;48.042;12.240;2023-01-30T02:07:04;96663.56;;;-2.53;69.35
12757;BME280;31601;48.042;12.240;2023-01-30T02:09:30;96659.81;;;-2.47;68.92
12757;BME280;31601;48.042;12.240;2023-01-30T02:11:59;96653.19;;;-2.51;68.71
12757;BME280;31601;48.042;12.240;2023-01-30T02:14:29;96659.31;;;-2.54;69.24
12757;BME280;31601;48.042;12.240;2023-01-30T02:16:57;96665.41;;;-2.55;69.15
12757;BME280;31601;48.042;12.240;2023-01-30T02:19:45;96658.50;;;-2.54;68.65
12757;BME280;31601;48.042;12.240;2023-01-30T02:22:23;96661.00;;;-2.53;68.82
12757;BME280;31601;48.042;12.240;2023-01-30T02:25:10;96667.13;;;-2.55;68.62
12757;BME280;31601;48.042;12.240;2023-01-30T02:27:56;96660.72;;;-2.62;69.03
12757;BME280;31601;48.042;12.240;2023-01-30T02:30:55;96653.03;;;-2.62;68.73
12757;BME280;31601;48.042;12.240;2023-01-30T02:33:35;96653.75;;;-2.60;68.43
12757;BME280;31601;48.042;12.240;2023-01-30T02:36:11;96661.63;;;-2.63;68.66
12757;BME280;31601;48.042;12.240;2023-01-30T02:38:47;96679.78;;;-2.66;68.76
12757;BME280;31601;48.042;12.240;2023-01-30T02:41:22;96680.69;;;-2.67;68.69
12757;BME280;31601;48.042;12.240;2023-01-30T02:43:58;96669.69;;;-2.70;68.70
12757;BME280;31601;48.042;12.240;2023-01-30T02:46:33;96666.22;;;-2.68;68.82
12757;BME280;31601;48.042;12.240;2023-01-30T02:49:05;96673.34;;;-2.74;68.95
12757;BME280;31601;48.042;12.240;2023-01-30T02:51:36;96664.03;;;-2.75;68.89
12757;BME280;31601;48.042;12.240;2023-01-30T02:54:04;96667.31;;;-2.73;69.02
12757;BME280;31601;48.042;12.240;2023-01-30T02:56:43;96669.88;;;-2.73;68.91
12757;BME280;31601;48.042;12.240;2023-01-30T02:59:11;96663.19;;;-2.75;68.57
12757;BME280;31601;48.042;12.240;2023-01-30T03:01:54;96666.09;;;-2.81;68.99
12757;BME280;31601;48.042;12.240;2023-01-30T03:04:32;96659.53;;;-2.85;69.13
12757;BME280;31601;48.042;12.240;2023-01-30T03:07:20;96670.53;;;-2.83;68.94
12757;BME280;31601;48.042;12.240;2023-01-30T03:09:57;96669.13;;;-2.89;68.57
12757;BME280;31601;48.042;12.240;2023-01-30T03:12:34;96667.13;;;-2.84;68.92
12757;BME280;31601;48.042;12.240;2023-01-30T03:15:08;96675.19;;;-2.90;69.20
12757;BME280;31601;48.042;12.240;2023-01-30T03:17:39;96674.25;;;-2.89;69.05
12757;BME280;31601;48.042;12.240;2023-01-30T03:20:09;96678.50;;;-2.88;69.21
12757;BME280;31601;48.042;12.240;2023-01-30T03:22:35;96680.88;;;-2.85;68.72
12757;BME280;31601;48.042;12.240;2023-01-30T03:25:02;96681.97;;;-2.89;68.76
12757;BME280;31601;48.042;12.240;2023-01-30T03:27:29;96680.50;;;-2.93;68.93
12757;BME280;31601;48.042;12.240;2023-01-30T03:29:55;96678.84;;;-2.94;69.06
12757;BME280;31601;48.042;12.240;2023-01-30T03:32:22;96674.44;;;-2.92;69.20
12757;BME280;31601;48.042;12.240;2023-01-30T03:34:50;96677.09;;;-2.94;69.23
12757;BME280;31601;48.042;12.240;2023-01-30T03:37:16;96673.81;;;-2.96;69.18
12757;BME280;31601;48.042;12.240;2023-01-30T03:39:43;96688.06;;;-3.06;69.18
12757;BME280;31601;48.042;12.240;2023-01-30T03:42:09;96689.38;;;-2.99;68.98
12757;BME280;31601;48.042;12.240;2023-01-30T03:44:36;96673.88;;;-3.12;69.13
12757;BME280;31601;48.042;12.240;2023-01-30T03:47:02;96673.69;;;-3.09;69.67
12757;BME280;31601;48.042;12.240;2023-01-30T03:49:28;96674.59;;;-3.10;69.40
12757;BME280;31601;48.042;12.240;2023-01-30T03:51:56;96678.81;;;-3.09;69.85
12757;BME280;31601;48.042;12.240;2023-01-30T03:54:23;96687.25;;;-3.07;69.68
12757;BME280;31601;48.042;12.240;2023-01-30T03:56:49;96683.97;;;-3.09;69.59
12757;BME280;31601;48.042;12.240;2023-01-30T03:59:16;96674.44;;;-3.07;69.76
12757;BME280;31601;48.042;12.240;2023-01-30T04:01:42;96666.00;;;-2.94;69.83
12757;BME280;31601;48.042;12.240;2023-01-30T04:04:08;96656.91;;;-3.00;70.16
12757;BME280;31601;48.042;12.240;2023-01-30T04:06:35;96657.22;;;-2.90;69.95
12757;BME280;31601;48.042;12.240;2023-01-30T04:09:03;96661.81;;;-2.81;69.69
12757;BME280;31601;48.042;12.240;2023-01-30T04:11:29;96653.91;;;-2.92;70.11
12757;BME280;31601;48.042;12.240;2023-01-30T04:13:56;96639.69;;;-2.83;70.50
12757;BME280;31601;48.042;12.240;2023-01-30T04:16:26;96631.72;;;-2.79;70.59
12757;BME280;31601;48.042;12.240;2023-01-30T04:18:52;96640.72;;;-2.72;70.49
12757;BME280;31601;48.042;12.240;2023-01-30T04:21:19;96637.97;;;-2.68;69.49
12757;BME280;31601;48.042;12.240;2023-01-30T04:23:46;96633.03;;;-2.72;69.73
12757;BME280;31601;48.042;12.240;2023-01-30T04:26:14;96631.81;;;-2.52;69.50
12757;BME280;31601;48.042;12.240;2023-01-30T04:28:41;96633.94;;;-2.44;69.20
12757;BME280;31601;48.042;12.240;2023-01-30T04:31:08;96637.59;;;-2.48;69.44
12757;BME280;31601;48.042;12.240;2023-01-30T04:33:35;96640.97;;;-2.33;68.82
12757;BME280;31601;48.042;12.240;2023-01-30T04:36:05;96660.31;;;-2.27;68.66
12757;BME280;31601;48.042;12.240;2023-01-30T04:38:33;96675.19;;;-2.18;68.54
12757;BME280;31601;48.042;12.240;2023-01-30T04:41:00;96684.19;;;-2.11;68.75
12757;BME280;31601;48.042;12.240;2023-01-30T04:43:29;96670.31;;;-2.23;68.81
12757;BME280;31601;48.042;12.240;2023-01-30T04:45:56;96665.00;;;-2.05;68.33
12757;BME280;31601;48.042;12.240;2023-01-30T04:48:23;96658.28;;;-2.08;68.61
12757;BME280;31601;48.042;12.240;2023-01-30T04:50:51;96660.28;;;-1.99;68.43
12757;BME280;31601;48.042;12.240;2023-01-30T04:53:19;96651.00;;;-2.01;68.41
12757;BME280;31601;48.042;12.240;2023-01-30T04:55:46;96647.28;;;-2.10;68.49
12757;BME280;31601;48.042;12.240;2023-01-30T04:58:13;96645.03;;;-2.02;67.85
12757;BME280;31601;48.042;12.240;2023-01-30T05:00:41;96638.13;;;-1.87;68.08
12757;BME280;31601;48.042;12.240;2023-01-30T05:03:08;96636.69;;;-1.78;67.60
12757;BME280;31601;48.042;12.240;2023-01-30T05:05:34;96637.09;;;-1.84;67.62
12757;BME280;31601;48.042;12.240;2023-01-30T05:08:01;96633.31;;;-1.78;67.76
12757;BME280;31601;48.042;12.240;2023-01-30T05:10:27;96614.19;;;-1.74;67.26
12757;BME280;31601;48.042;12.240;2023-01-30T05:12:54;96616.50;;;-1.84;67.81
12757;BME280;31601;48.042;12.240;2023-01-30T05:15:21;96600.69;;;-1.78;67.63
12757;BME280;31601;48.042;12.240;2023-01-30T05:17:49;96597.41;;;-1.80;67.91
12757;BME280;31601;48.042;12.240;2023-01-30T05:20:15;96601.09;;;-1.84;67.61
12757;BME280;31601;48.042;12.240;2023-01-30T05:22:42;96607.00;;;-1.96;67.48
12757;BME280;31601;48.042;12.240;2023-01-30T05:25:09;96612.50;;;-1.88;67.58
12757;BME280;31601;48.042;12.240;2023-01-30T05:27:35;96598.56;;;-1.99;67.73
12757;BME280;31601;48.042;12.240;2023-01-30T05:30:02;96599.38;;;-1.98;67.76
12757;BME280;31601;48.042;12.240;2023-01-30T05:32:29;96599.97;;;-2.07;67.87
12757;BME280;31601;48.042;12.240;2023-01-30T05:34:57;96603.66;;;-2.11;67.48
12757;BME280;31601;48.042;12.240;2023-01-30T05:37:24;96593.88;;;-2.19;68.51
12757;BME280;31601;48.042;12.240;2023-01-30T05:39:50;96580.56;;;-2.26;68.50
12757;BME280;31601;48.042;12.240;2023-01-30T05:42:17;96566.03;;;-2.12;68.46
12757;BME280;31601;48.042;12.240;2023-01-30T05:44:43;96553.25;;;-2.14;68.47
12757;BME280;31601;48.042;12.240;2023-01-30T05:47:10;96546.06;;;-2.09;68.48
12757;BME280;31601;48.042;12.240;2023-01-30T05:49:36;96561.31;;;-2.06;68.32
12757;BME280;31601;48.042;12.240;2023-01-30T05:52:04;96570.88;;;-2.08;68.44
12757;BME280;31601;48.042;12.240;2023-01-30T05:54:31;96580.75;;;-2.02;67.88
12757;BME280;31601;48.042;12.240;2023-01-30T05:56:59;96569.66;;;-2.02;67.83
12757;BME280;31601;48.042;12.240;2023-01-30T05:59:26;96565.63;;;-2.06;67.85
12757;BME280;31601;48.042;12.240;2023-01-30T06:01:52;96565.53;;;-2.05;67.54
12757;BME280;31601;48.042;12.240;2023-01-30T06:04:18;96567.59;;;-2.10;67.50
12757;BME280;31601;48.042;12.240;2023-01-30T06:06:47;96568.50;;;-2.11;67.05
12757;BME280;31601;48.042;12.240;2023-01-30T06:09:15;96577.50;;;-2.18;67.49
12757;BME280;31601;48.042;12.240;2023-01-30T06:11:42;96580.50;;;-2.39;67.91
12757;BME280;31601;48.042;12.240;2023-01-30T06:14:08;96575.06;;;-2.34;68.18
12757;BME280;31601;48.042;12.240;2023-01-30T06:16:35;96564.88;;;-2.36;68.07
12757;BME280;31601;48.042;12.240;2023-01-30T06:19:01;96558.09;;;-2.37;68.09
12757;BME280;31601;48.042;12.240;2023-01-30T06:21:28;96547.25;;;-2.27;67.79
12757;BME280;31601;48.042;12.240;2023-01-30T06:23:54;96547.34;;;-2.29;67.93
12757;BME280;31601;48.042;12.240;2023-01-30T06:26:22;96550.38;;;-2.22;67.35
12757;BME280;31601;48.042;12.240;2023-01-30T06:28:49;96549.53;;;-2.23;67.83
12757;BME280;31601;48.042;12.240;2023-01-30T06:31:15;96567.19;;;-2.31;68.00
12757;BME280;31601;48.042;12.240;2023-01-30T06:33:42;96567.19;;;-2.31;67.96
12757;BME280;31601;48.042;12.240;2023-01-30T06:36:09;96557.13;;;-2.21;67.88
12757;BME280;31601;48.042;12.240;2023-01-30T06:38:36;96560.28;;;-2.30;67.77
12757;BME280;31601;48.042;12.240;2023-01-30T06:41:02;96565.59;;;-2.19;67.75
12757;BME280;31601;48.042;12.240;2023-01-30T06:43:30;96555.34;;;-2.06;67.85
12757;BME280;31601;48.042;12.240;2023-01-30T06:45:57;96556.81;;;-2.02;67.80
12757;BME280;31601;48.042;12.240;2023-01-30T06:48:23;96553.56;;;-1.91;67.57
12757;BME280;31601;48.042;12.240;2023-01-30T06:50:50;96556.22;;;-1.93;67.41
12757;BME280;31601;48.042;12.240;2023-01-30T06:53:17;96563.19;;;-1.95;67.36
12757;BME280;31601;48.042;12.240;2023-01-30T06:55:44;96569.19;;;-1.94;67.19
12757;BME280;31601;48.042;12.240;2023-01-30T06:58:11;96553.75;;;-1.94;67.36
12757;BME280;31601;48.042;12.240;2023-01-30T07:00:40;96551.19;;;-1.94;67.12
12757;BME280;31601;48.042;12.240;2023-01-30T07:03:09;96557.84;;;-1.92;67.32
12757;BME280;31601;48.042;12.240;2023-01-30T07:05:37;96579.56;;;-1.96;67.22
12757;BME280;31601;48.042;12.240;2023-01-30T07:08:04;96579.31;;;-2.06;67.09
12757;BME280;31601;48.042;12.240;2023-01-30T07:10:30;96568.53;;;-1.98;67.20
12757;BME280;31601;48.042;12.240;2023-01-30T07:12:57;96576.16;;;-1.96;66.76
12757;BME280;31601;48.042;12.240;2023-01-30T07:15:24;96579.47;;;-1.94;66.97
12757;BME280;31601;48.042;12.240;2023-01-30T07:17:52;96572.28;;;-1.89;66.69
12757;BME280;31601;48.042;12.240;2023-01-30T07:20:18;96559.59;;;-1.92;67.03
12757;BME280;31601;48.042;12.240;2023-01-30T07:22:48;96558.31;;;-1.85;67.14
12757;BME280;31601;48.042;12.240;2023-01-30T07:25:15;96558.00;;;-1.81;66.44
12757;BME280;31601;48.042;12.240;2023-01-30T07:27:42;96555.44;;;-1.81;66.63
12757;BME280;31601;48.042;12.240;2023-01-30T07:30:09;96550.31;;;-1.68;66.40
12757;BME280;31601;48.042;12.240;2023-01-30T07:32:36;96551.38;;;-1.57;66.65
12757;BME280;31601;48.042;12.240;2023-01-30T07:35:04;96550.75;;;-1.48;66.07
12757;BME280;31601;48.042;12.240;2023-01-30T07:37:31;96563.13;;;-1.28;66.30
12757;BME280;31601;48.042;12.240;2023-01-30T07:39:57;96573.22;;;-1.24;66.09
12757;BME280;31601;48.042;12.240;2023-01-30T07:42:24;96569.63;;;-1.09;65.67
12757;BME280;31601;48.042;12.240;2023-01-30T07:44:50;96565.19;;;-0.94;65.39
12757;BME280;31601;48.042;12.240;2023-01-30T07:47:17;96553.41;;;-0.85;65.17
12757;BME280;31601;48.042;12.240;2023-01-30T07:49:44;96556.31;;;-0.77;64.98
12757;BME280;31601;48.042;12.240;2023-01-30T07:52:12;96555.88;;;-0.84;64.81
12757;BME280;31601;48.042;12.240;2023-01-30T07:54:38;96557.34;;;-0.80;64.76
12757;BME280;31601;48.042;12.240;2023-01-30T07:57:08;96567.63;;;-0.67;64.65
12757;BME280;31601;48.042;12.240;2023-01-30T07:59:34;96559.66;;;-0.64;64.44
12757;BME280;31601;48.042;12.240;2023-01-30T08:02:01;96562.66;;;-0.57;64.22
12757;BME280;31601;48.042;12.240;2023-01-30T08:04:27;96549.75;;;-0.44;63.87
12757;BME280;31601;48.042;12.240;2023-01-30T08:06:55;96550.09;;;-0.25;63.76
12757;BME280;31601;48.042;12.240;2023-01-30T08:09:23;96552.28;;;-0.07;63.41
12757;BME280;31601;48.042;12.240;2023-01-30T08:11:50;96545.25;;;-0.05;63.50
12757;BME280;31601;48.042;12.240;2023-01-30T08:14:16;96536.19;;;0.13;63.05
12757;BME280;31601;48.042;12.240;2023-01-30T08:16:43;96531.56;;;0.30;63.05
12757;BME280;31601;48.042;12.240;2023-01-30T08:19:09;96525.50;;;0.42;62.42
12757;BME280;31601;48.042;12.240;2023-01-30T08:21:35;96534.22;;;0.64;61.97
12757;BME280;31601;48.042;12.240;2023-01-30T08:24:02;96530.97;;;0.96;61.45
12757;BME280;31601;48.042;12.240;2023-01-30T08:26:33;96528.63;;;0.93;61.77
12757;BME280;31601;48.042;12.240;2023-01-30T08:28:59;96522.50;;;1.05;61.59
12757;BME280;31601;48.042;12.240;2023-01-30T08:31:26;96534.97;;;1.34;60.75
12757;BME280;31601;48.042;12.240;2023-01-30T08:33:52;96532.84;;;1.28;60.57
12757;BME280;31601;48.042;12.240;2023-01-30T08:36:19;96528.25;;;1.54;60.28
12757;BME280;31601;48.042;12.240;2023-01-30T08:38:45;96518.38;;;1.48;59.86
12757;BME280;31601;48.042;12.240;2023-01-30T08:41:12;96523.22;;;1.41;59.65
12757;BME280;31601;48.042;12.240;2023-01-30T08:43:39;96514.97;;;1.58;59.55
12757;BME280;31601;48.042;12.240;2023-01-30T08:46:06;96507.44;;;1.55;59.59
12757;BME280;31601;48.042;12.240;2023-01-30T08:48:32;96500.13;;;1.72;58.90
12757;BME280;31601;48.042;12.240;2023-01-30T08:50:59;96511.34;;;1.82;58.78
12757;BME280;31601;48.042;12.240;2023-01-30T08:53:25;96503.81;;;1.90;58.15
12757;BME280;31601;48.042;12.240;2023-01-30T08:55:52;96497.75;;;1.80;58.42
12757;BME280;31601;48.042;12.240;2023-01-30T08:58:19;96493.50;;;1.79;58.22
12757;BME280;31601;48.042;12.240;2023-01-30T09:00:47;96493.84;;;1.86;57.96
12757;BME280;31601;48.042;12.240;2023-01-30T09:03:14;96487.19;;;2.25;57.33
12757;BME280;31601;48.042;12.240;2023-01-30T09:05:42;96497.41;;;2.27;57.42
12757;BME280;31601;48.042;12.240;2023-01-30T09:08:08;96493.19;;;2.47;57.15
12757;BME280;31601;48.042;12.240;2023-01-30T09:10:35;96493.69;;;2.62;56.98
12757;BME280;31601;48.042;12.240;2023-01-30T09:13:02;96488.66;;;2.60;56.67
12757;BME280;31601;48.042;12.240;2023-01-30T09:15:30;96492.81;;;2.51;57.26
12757;BME280;31601;48.042;12.240;2023-01-30T09:17:58;96478.97;;;2.62;57.44
12757;BME280;31601;48.042;12.240;2023-01-30T09:20:24;96476.25;;;2.64;57.15
12757;BME280;31601;48.042;12.240;2023-01-30T09:22:51;96469.84;;;2.58;57.35
12757;BME280;31601;48.042;12.240;2023-01-30T09:25:18;96479.19;;;2.49;57.43
12757;BME280;31601;48.042;12.240;2023-01-30T09:27:47;96472.97;;;2.41;57.49
12757;BME280;31601;48.042;12.240;2023-01-30T09:30:14;96464.41;;;2.40;57.85
12757;BME280;31601;48.042;12.240;2023-01-30T09:32:41;96476.78;;;2.37;57.93
12757;BME280;31601;48.042;12.240;2023-01-30T09:35:09;96471.38;;;2.40;57.92
12757;BME280;31601;48.042;12.240;2023-01-30T09:37:35;96464.84;;;2.24;58.78
12757;BME280;31601;48.042;12.240;2023-01-30T09:40:02;96480.94;;;2.28;59.16
12757;BME280;31601;48.042;12.240;2023-01-30T09:43:08;96477.16;;;2.11;59.45
12757;BME280;31601;48.042;12.240;2023-01-30T09:45:47;96475.59;;;2.20;59.15
12757;BME280;31601;48.042;12.240;2023-01-30T09:48:19;96471.53;;;2.27;59.55
12757;BME280;31601;48.042;12.240;2023-01-30T09:54:02;96461.13;;;2.38;59.17
12757;BME280;31601;48.042;12.240;2023-01-30T09:56:30;96451.88;;;2.45;58.92
12757;BME280;31601;48.042;12.240;2023-01-30T09:58:58;96456.47;;;2.32;58.50
12757;BME280;31601;48.042;12.240;2023-01-30T10:01:28;96453.41;;;2.48;58.17
12757;BME280;31601;48.042;12.240;2023-01-30T10:04:05;96441.81;;;2.73;57.77
12757;BME280;31601;48.042;12.240;2023-01-30T10:06:44;96429.31;;;2.88;56.99
12757;BME280;31601;48.042;12.240;2023-01-30T10:09:17;96440.75;;;2.85;56.63
12757;BME280;31601;48.042;12.240;2023-01-30T10:11:58;96437.97;;;2.98;56.33
12757;BME280;31601;48.042;12.240;2023-01-30T10:14:45;96434.34;;;3.30;56.23
12757;BME280;31601;48.042;12.240;2023-01-30T10:17:37;96409.69;;;3.65;55.14
12757;BME280;31601;48.042;12.240;2023-01-30T10:20:26;96421.16;;;3.82;54.63
12757;BME280;31601;48.042;12.240;2023-01-30T10:23:08;96436.72;;;3.92;54.00
12757;BME280;31601;48.042;12.240;2023-01-30T10:25:40;96429.22;;;4.08;53.29
12757;BME280;31601;48.042;12.240;2023-01-30T10:28:11;96433.97;;;4.33;52.61
12757;BME280;31601;48.042;12.240;2023-01-30T10:30:43;96433.22;;;4.60;52.32
12757;BME280;31601;48.042;12.240;2023-01-30T10:33:16;96428.63;;;4.81;52.49
12757;BME280;31601;48.042;12.240;2023-01-30T10:35:56;96415.63;;;4.81;52.06
12757;BME280;31601;48.042;12.240;2023-01-30T10:38:29;96414.91;;;4.89;51.30
12757;BME280;31601;48.042;12.240;2023-01-30T10:41:03;96383.53;;;4.63;51.87
12757;BME280;31601;48.042;12.240;2023-01-30T10:43:35;96364.03;;;4.49;51.55
12757;BME280;31601;48.042;12.240;2023-01-30T10:46:11;96373.28;;;4.24;52.01
12757;BME280;31601;48.042;12.240;2023-01-30T10:48:51;96382.38;;;4.47;52.02
12757;BME280;31601;48.042;12.240;2023-01-30T10:51:39;96384.31;;;4.45;51.93
12757;BME280;31601;48.042;12.240;2023-01-30T10:54:12;96367.00;;;4.17;52.46
12757;BME280;31601;48.042;12.240;2023-01-30T10:56:46;96363.50;;;4.08;52.27
12757;BME280;31601;48.042;12.240;2023-01-30T10:59:21;96354.47;;;4.02;52.33
12757;BME280;31601;48.042;12.240;2023-01-30T11:01:56;96354.69;;;4.28;52.60
12757;BME280;31601;48.042;12.240;2023-01-30T11:04:28;96346.22;;;4.17;53.32
12757;BME280;31601;48.042;12.240;2023-01-30T11:06:56;96350.88;;;4.23;52.81
12757;BME280;31601;48.042;12.240;2023-01-30T11:09:36;96356.94;;;4.51;52.56
12757;BME280;31601;48.042;12.240;2023-01-30T11:12:03;96345.09;;;4.39;53.50
12757;BME280;31601;48.042;12.240;2023-01-30T11:14:49;96328.38;;;4.41;53.20
12757;BME280;31601;48.042;12.240;2023-01-30T11:17:17;96322.66;;;4.38;52.94
12757;BME280;31601;48.042;12.240;2023-01-30T11:19:44;96304.25;;;4.59;52.99
12757;BME280;31601;48.042;12.240;2023-01-30T11:22:13;96285.88;;;4.70;52.89
12757;BME280;31601;48.042;12.240;2023-01-30T11:24:43;96289.31;;;4.89;53.27
12757;BME280;31601;48.042;12.240;2023-01-30T11:27:11;96291.06;;;5.16;51.99
12757;BME280;31601;48.042;12.240;2023-01-30T11:29:41;96282.78;;;5.38;51.77
12757;BME280;31601;48.042;12.240;2023-01-30T11:32:11;96278.69;;;5.80;51.44
12757;BME280;31601;48.042;12.240;2023-01-30T11:34:41;96272.75;;;5.96;51.03
12757;BME280;31601;48.042;12.240;2023-01-30T11:37:14;96270.44;;;5.85;50.83
12757;BME280;31601;48.042;12.240;2023-01-30T11:39:50;96259.50;;;5.81;50.70
12757;BME280;31601;48.042;12.240;2023-01-30T11:42:18;96253.28;;;5.74;50.87
12757;BME280;31601;48.042;12.240;2023-01-30T11:44:45;96249.06;;;5.99;50.67
12757;BME280;31601;48.042;12.240;2023-01-30T11:47:16;96248.34;;;6.15;50.15
12757;BME280;31601;48.042;12.240;2023-01-30T11:49:47;96231.72;;;6.16;50.35
12757;BME280;31601;48.042;12.240;2023-01-30T11:52:17;96232.41;;;6.26;49.92
12757;BME280;31601;48.042;12.240;2023-01-30T11:54:48;96228.06;;;6.35;50.03
12757;BME280;31601;48.042;12.240;2023-01-30T11:57:17;96231.53;;;6.09;50.89
12757;BME280;31601;48.042;12.240;2023-01-30T11:59:46;96217.38;;;6.12;50.93
12757;BME280;31601;48.042;12.240;2023-01-30T12:02:18;96217.78;;;5.99;50.86
12757;BME280;31601;48.042;12.240;2023-01-30T12:04:48;96205.00;;;6.06;51.17
12757;BME280;31601;48.042;12.240;2023-01-30T12:07:21;96214.84;;;6.28;51.41
12757;BME280;31601;48.042;12.240;2023-01-30T12:09:49;96210.56;;;6.19;51.37
12757;BME280;31601;48.042;12.240;2023-01-30T12:12:29;96204.63;;;6.43;50.84
12757;BME280;31601;48.042;12.240;2023-01-30T12:15:17;96207.72;;;6.47;50.82
12757;BME280;31601;48.042;12.240;2023-01-30T12:17:51;96200.94;;;6.62;50.57
12757;BME280;31601;48.042;12.240;2023-01-30T12:20:28;96198.03;;;6.74;51.21
12757;BME280;31601;48.042;12.240;2023-01-30T12:23:04;96202.28;;;6.91;50.73
12757;BME280;31601;48.042;12.240;2023-01-30T12:25:40;96194.75;;;6.55;51.08
12757;BME280;31601;48.042;12.240;2023-01-30T12:28:11;96186.88;;;6.47;50.85
12757;BME280;31601;48.042;12.240;2023-01-30T12:30:45;96189.06;;;6.68;51.06
12757;BME280;31601;48.042;12.240;2023-01-30T12:33:14;96188.53;;;6.56;51.26
12757;BME280;31601;48.042;12.240;2023-01-30T12:35:51;96189.09;;;6.25;51.62
12757;BME280;31601;48.042;12.240;2023-01-30T12:38:32;96174.41;;;6.16;52.14
12757;BME280;31601;48.042;12.240;2023-01-30T12:41:09;96173.28;;;6.11;52.21
12757;BME280;31601;48.042;12.240;2023-01-30T12:43:49;96177.00;;;6.08;52.93
12757;BME280;31601;48.042;12.240;2023-01-30T12:46:35;96164.25;;;5.97;53.57
12757;BME280;31601;48.042;12.240;2023-01-30T12:49:30;96160.75;;;5.80;53.99
12757;BME280;31601;48.042;12.240;2023-01-30T12:52:15;96169.16;;;5.73;54.27
12757;BME280;31601;48.042;12.240;2023-01-30T12:54:54;96160.28;;;5.58;54.45
12757;BME280;31601;48.042;12.240;2023-01-30T12:57:28;96155.59;;;5.62;54.87
12757;BME280;31601;48.042;12.240;2023-01-30T13:00:23;96148.84;;;5.77;54.61
12757;BME280;31601;48.042;12.240;2023-01-30T13:03:08;96142.91;;;5.67;55.03
12757;BME280;31601;48.042;12.240;2023-01-30T13:05:43;96150.59;;;5.42;55.46
12757;BME280;31601;48.042;12.240;2023-01-30T13:08:27;96151.19;;;5.36;56.32
12757;BME280;31601;48.042;12.240;2023-01-30T13:11:04;96166.44;;;5.49;57.14